createdAt,value
2018-08-10T00:02:02.394Z,85.53
2018-08-10T00:04:32.548Z,85.79
2018-08-10T00:07:13.469Z,85.50
2018-08-10T00:09:42.729Z,86.22
2018-08-10T00:12:12.124Z,85.59
2018-08-10T00:14:43.723Z,85.42
2018-08-10T00:17:24.262Z,85.61
2018-08-10T00:20:05.647Z,86.55
2018-08-10T00:23:07.152Z,87.20
2018-08-10T00:25:36.317Z,86.84
2018-08-10T00:28:13.708Z,86.31
2018-08-10T00:30:44.524Z,86.02
2018-08-10T00:33:26.558Z,85.87
2018-08-10T00:35:57.208Z,87.01
2018-08-10T00:38:33.325Z,86.85
2018-08-10T00:44:43.758Z,88.54
2018-08-10T00:47:19.298Z,89.16
2018-08-10T00:49:59.228Z,90.46
2018-08-10T00:53:02.331Z,89.85
2018-08-10T00:55:32.667Z,88.84
2018-08-10T00:58:04.271Z,89.56
2018-08-10T01:00:34.952Z,89.54
2018-08-10T01:03:13.316Z,88.72
2018-08-10T01:05:48.763Z,89.08
2018-08-10T01:08:18.078Z,88.94
2018-08-10T01:10:47.371Z,87.98
2018-08-10T01:13:26.496Z,87.31
2018-08-10T01:15:55.648Z,86.59
2018-08-10T01:18:25.420Z,87.37
2018-08-10T01:20:55.139Z,87.36
2018-08-10T01:23:24.838Z,88.60
2018-08-10T01:26:35.997Z,89.04
2018-08-10T01:29:15.237Z,89.62
2018-08-10T01:31:44.496Z,90.63
2018-08-10T01:34:20.009Z,90.15
2018-08-10T01:37:05.440Z,91.40
2018-08-10T01:39:34.592Z,91.76
2018-08-10T01:42:04.368Z,93.03
2018-08-10T01:44:33.700Z,94.21
2018-08-10T01:47:03.460Z,95.09
2018-08-10T01:49:32.741Z,97.01
2018-08-10T01:52:02.344Z,96.39
2018-08-10T01:54:31.484Z,96.37
2018-08-10T01:57:03.810Z,96.26
2018-08-10T02:02:45.516Z,95.52
2018-08-10T02:05:16.717Z,95.90
2018-08-10T02:08:08.332Z,97.11
2018-08-10T02:10:38.684Z,97.06
2018-08-10T02:13:07.995Z,96.67
2018-08-10T02:15:37.490Z,96.52
2018-08-10T02:18:16.111Z,96.23
2018-08-10T02:20:46.477Z,96.60
2018-08-10T02:23:15.804Z,93.68
2018-08-10T02:25:45.229Z,90.61
2018-08-10T02:28:33.114Z,89.96
2018-08-10T02:31:03.083Z,89.12
2018-08-10T02:33:32.895Z,87.96
2018-08-10T02:36:09.220Z,86.47
2018-08-10T02:38:38.602Z,85.68
2018-08-10T02:41:07.679Z,88.20
2018-08-10T02:43:38.034Z,90.54
2018-08-10T02:46:07.181Z,92.18
2018-08-10T02:48:36.391Z,91.82
2018-08-10T02:51:05.638Z,93.24
2018-08-10T02:53:34.951Z,92.61
2018-08-10T02:56:15.930Z,93.33
2018-08-10T02:58:45.432Z,94.37
2018-08-10T03:04:26.161Z,96.85
2018-08-10T03:07:11.501Z,98.61
2018-08-10T03:09:40.717Z,100.00
2018-08-10T03:12:11.621Z,100.00
2018-08-10T03:14:41.359Z,100.00
2018-08-10T03:17:10.909Z,100.00
2018-08-10T03:19:40.042Z,100.00
2018-08-10T03:22:09.756Z,100.00
2018-08-10T03:24:38.948Z,100.00
2018-08-10T03:27:08.718Z,100.00
2018-08-10T03:29:38.034Z,100.00
2018-08-10T03:32:07.379Z,99.90
2018-08-10T03:34:37.202Z,100.00
2018-08-10T03:37:07.706Z,100.00
2018-08-10T03:39:36.879Z,100.00
2018-08-10T03:42:06.190Z,100.00
2018-08-10T03:44:35.326Z,100.00
2018-08-10T03:47:04.600Z,100.00
2018-08-10T03:49:33.603Z,99.30
2018-08-10T03:52:04.440Z,99.53
2018-08-10T03:54:33.457Z,99.34
2018-08-10T03:57:03.039Z,99.50
2018-08-10T03:59:32.087Z,99.11
2018-08-10T04:02:01.806Z,100.00
2018-08-10T04:04:30.904Z,99.86
2018-08-10T04:07:00.208Z,100.00
2018-08-10T04:09:29.305Z,99.64
2018-08-10T04:11:58.337Z,98.61
2018-08-10T04:14:27.446Z,99.18
2018-08-10T04:16:56.512Z,99.90
2018-08-10T04:19:25.679Z,100.00
2018-08-10T04:21:54.826Z,99.80
2018-08-10T04:24:24.035Z,100.00
2018-08-10T04:26:53.214Z,100.00
2018-08-10T04:29:22.357Z,100.00
2018-08-10T04:31:51.414Z,100.00
2018-08-10T04:34:20.473Z,100.00
2018-08-10T04:36:49.676Z,100.00
2018-08-10T04:39:18.742Z,100.00
2018-08-10T04:41:47.808Z,99.76
2018-08-10T04:44:16.943Z,97.56
2018-08-10T04:46:45.995Z,97.63
2018-08-10T04:49:15.126Z,97.32
2018-08-10T04:51:44.240Z,95.28
2018-08-10T04:54:13.425Z,93.07
2018-08-10T04:56:43.516Z,91.01
2018-08-10T04:59:12.608Z,88.10
2018-08-10T05:01:42.196Z,88.83
2018-08-10T05:04:11.247Z,85.98
2018-08-10T05:06:40.626Z,87.14
2018-08-10T05:09:12.043Z,86.85
2018-08-10T05:11:41.225Z,84.58
2018-08-10T05:14:10.486Z,82.36
2018-08-10T05:16:39.657Z,84.23
2018-08-10T05:19:08.947Z,82.65
2018-08-10T05:21:38.221Z,81.56
2018-08-10T05:24:07.363Z,79.77
2018-08-10T05:26:36.394Z,79.36
2018-08-10T05:29:05.586Z,78.02
2018-08-10T05:31:34.647Z,77.47
2018-08-10T05:34:04.248Z,77.77
2018-08-10T05:36:33.305Z,76.36
2018-08-10T05:39:03.009Z,75.19
2018-08-10T05:41:32.125Z,74.25
2018-08-10T05:44:01.818Z,73.72
2018-08-10T05:46:30.940Z,72.83
2018-08-10T05:49:00.208Z,72.83
2018-08-10T05:51:29.400Z,72.89
2018-08-10T05:53:58.622Z,72.99
2018-08-10T05:56:27.705Z,72.38
2018-08-10T05:58:56.809Z,72.46
2018-08-10T06:01:25.894Z,71.78
2018-08-10T06:03:55.200Z,71.12
2018-08-10T06:06:24.101Z,70.50
2018-08-10T06:08:53.088Z,70.77
2018-08-10T06:11:22.293Z,69.47
2018-08-10T06:13:51.475Z,68.53
2018-08-10T06:16:20.616Z,67.74
2018-08-10T06:18:49.693Z,65.88
2018-08-10T06:21:18.781Z,64.62
2018-08-10T06:23:47.878Z,63.04
2018-08-10T06:26:17.027Z,61.25
2018-08-10T06:28:46.075Z,61.98
2018-08-10T06:31:15.214Z,60.41
2018-08-10T06:33:44.467Z,60.74
2018-08-10T06:36:13.592Z,59.99
2018-08-10T06:38:42.712Z,61.30
2018-08-10T06:41:12.127Z,57.43
2018-08-10T06:43:41.209Z,55.75
2018-08-10T06:46:10.248Z,55.91
2018-08-10T06:48:39.477Z,54.91
2018-08-10T06:51:08.620Z,54.93
2018-08-10T06:53:37.751Z,54.51
2018-08-10T06:56:07.000Z,52.00
2018-08-10T06:58:37.765Z,53.12
2018-08-10T07:01:09.188Z,52.69
2018-08-10T07:03:40.269Z,52.43
2018-08-10T07:06:10.177Z,51.90
2018-08-10T07:13:24.028Z,53.08
2018-08-10T07:16:02.212Z,51.92
2018-08-10T07:18:31.352Z,51.32
2018-08-10T07:21:01.450Z,52.22
2018-08-10T07:23:30.526Z,53.07
2018-08-10T07:25:59.685Z,50.30
2018-08-10T07:28:28.812Z,50.85
2018-08-10T07:30:57.939Z,47.91
2018-08-10T07:33:27.051Z,48.60
2018-08-10T07:35:56.995Z,47.60
2018-08-10T07:38:26.199Z,49.15
2018-08-10T07:40:55.411Z,50.04
2018-08-10T07:43:25.131Z,49.02
2018-08-10T07:45:54.233Z,49.28
2018-08-10T07:48:23.634Z,52.25
2018-08-10T07:50:52.723Z,51.65
2018-08-10T07:53:21.823Z,52.68
2018-08-10T07:55:50.960Z,48.29
2018-08-10T07:58:20.087Z,47.64
2018-08-10T08:00:49.471Z,48.86
2018-08-10T08:03:18.597Z,47.99
2018-08-10T08:05:47.974Z,47.59
2018-08-10T08:08:17.119Z,45.13
2018-08-10T08:10:46.391Z,45.47
2018-08-10T08:13:15.459Z,40.83
2018-08-10T08:15:44.528Z,41.54
2018-08-10T08:18:13.692Z,41.36
2018-08-10T08:20:54.330Z,42.04
2018-08-10T08:23:23.489Z,42.59
2018-08-10T08:25:52.624Z,44.00
2018-08-10T08:28:25.801Z,44.67
2018-08-10T08:30:55.081Z,45.15
2018-08-10T08:33:24.453Z,42.81
2018-08-10T08:35:53.919Z,41.79
2018-08-10T08:38:33.875Z,42.47
2018-08-10T08:41:03.667Z,41.19
2018-08-10T08:43:43.329Z,39.58
2018-08-10T08:46:12.797Z,39.08
2018-08-10T08:48:43.319Z,39.56
2018-08-10T08:51:15.632Z,41.08
2018-08-10T08:53:44.796Z,37.68
2018-08-10T08:56:16.319Z,37.90
2018-08-10T08:58:46.537Z,38.70
2018-08-10T09:01:16.251Z,40.72
2018-08-10T09:05:09.301Z,39.24
2018-08-10T09:07:39.108Z,37.38
2018-08-10T09:10:11.572Z,36.71
2018-08-10T09:12:40.774Z,36.38
2018-08-10T09:15:11.722Z,34.95
2018-08-10T09:17:41.026Z,34.28
2018-08-10T09:20:10.861Z,33.66
2018-08-10T09:22:40.053Z,35.71
2018-08-10T09:25:18.583Z,34.95
2018-08-10T09:27:47.667Z,36.57
2018-08-10T09:30:20.288Z,37.57
2018-08-10T09:32:49.419Z,37.25
2018-08-10T09:35:20.941Z,38.38
2018-08-10T09:37:50.009Z,37.82
2018-08-10T09:40:21.354Z,38.23
2018-08-10T09:42:50.500Z,38.65
2018-08-10T09:45:19.862Z,35.05
2018-08-10T09:47:50.049Z,32.92
2018-08-10T09:50:20.631Z,32.55
2018-08-10T09:52:59.030Z,32.49
2018-08-10T09:55:36.350Z,33.52
2018-08-10T10:03:50.512Z,35.64
2018-08-10T10:06:19.607Z,35.53
2018-08-10T10:08:48.662Z,38.46
2018-08-10T10:11:17.805Z,36.94
2018-08-10T10:13:46.857Z,38.08
2018-08-10T10:16:22.384Z,38.36
2018-08-10T10:18:51.452Z,36.11
2018-08-10T10:21:20.492Z,37.89
2018-08-10T10:23:49.622Z,34.48
2018-08-10T10:26:18.682Z,35.08
2018-08-10T10:28:47.699Z,33.25
2018-08-10T10:31:16.789Z,33.31
2018-08-10T10:33:45.748Z,31.25
2018-08-10T10:36:14.786Z,34.09
2018-08-10T10:38:43.810Z,34.84
2018-08-10T10:41:12.831Z,34.12
2018-08-10T10:43:41.816Z,32.93
2018-08-10T10:46:11.205Z,34.70
2018-08-10T10:48:40.206Z,36.73
2018-08-10T10:51:15.419Z,36.53
2018-08-10T10:53:44.872Z,34.57
2018-08-10T10:56:14.028Z,35.45
2018-08-10T10:58:43.166Z,33.01
2018-08-10T11:01:12.496Z,33.47
2018-08-10T11:03:41.543Z,32.32
2018-08-10T11:06:11.000Z,31.26
2018-08-10T11:08:39.915Z,31.39
2018-08-10T11:11:09.535Z,30.49
2018-08-10T11:13:38.570Z,31.73
2018-08-10T11:16:07.652Z,29.07
2018-08-10T11:18:36.653Z,32.87
2018-08-10T11:21:05.691Z,32.81
2018-08-10T11:23:34.617Z,31.22
2018-08-10T11:26:04.347Z,30.64
2018-08-10T11:28:33.285Z,29.58
2018-08-10T11:31:02.845Z,29.70
2018-08-10T11:33:31.952Z,27.58
2018-08-10T11:36:01.549Z,27.57
2018-08-10T11:38:30.578Z,30.69
2018-08-10T11:40:59.625Z,30.03
2018-08-10T11:43:28.668Z,29.60
2018-08-10T11:45:57.623Z,30.22
2018-08-10T11:48:26.585Z,32.06
2018-08-10T11:50:55.618Z,30.04
2018-08-10T11:53:24.600Z,32.25
2018-08-10T11:55:53.562Z,32.70
2018-08-10T11:58:22.842Z,32.75
2018-08-10T12:00:51.841Z,30.84
2018-08-10T12:03:20.776Z,31.33
2018-08-10T12:05:49.835Z,30.45
2018-08-10T12:08:18.824Z,30.56
2018-08-10T12:10:47.774Z,33.19
2018-08-10T12:13:17.756Z,32.59
2018-08-10T12:15:46.915Z,31.52
2018-08-10T12:18:15.954Z,31.48
2018-08-10T12:20:44.924Z,32.08
2018-08-10T12:23:13.930Z,32.23
2018-08-10T12:25:42.905Z,33.20
2018-08-10T12:28:11.938Z,33.89
2018-08-10T12:30:40.882Z,35.00
2018-08-10T12:33:10.279Z,37.90
2018-08-10T12:35:39.331Z,38.56
2018-08-10T12:38:08.800Z,39.73
2018-08-10T12:40:37.769Z,40.34
2018-08-10T12:43:06.926Z,41.81
2018-08-10T12:45:35.922Z,42.17
2018-08-10T12:48:05.550Z,42.53
2018-08-10T12:50:34.684Z,45.64
2018-08-10T12:53:04.097Z,47.89
2018-08-10T12:55:33.019Z,51.28
2018-08-10T12:58:02.468Z,51.69
2018-08-10T13:00:31.429Z,52.81
2018-08-10T13:03:01.009Z,54.59
2018-08-10T13:05:29.914Z,55.60
2018-08-10T13:07:58.991Z,53.83
2018-08-10T13:10:27.946Z,53.74
2018-08-10T13:12:56.870Z,52.95
2018-08-10T13:15:25.847Z,52.15
2018-08-10T13:17:54.814Z,50.11
2018-08-10T13:20:24.027Z,49.69
2018-08-10T13:22:52.990Z,48.52
2018-08-10T13:25:21.883Z,48.69
2018-08-10T13:27:50.911Z,48.02
2018-08-10T13:30:19.900Z,46.83
2018-08-10T13:32:48.822Z,45.35
2018-08-10T13:35:19.098Z,44.39
2018-08-10T13:37:48.128Z,45.19
2018-08-10T13:40:19.174Z,45.43
2018-08-10T13:42:48.124Z,43.25
2018-08-10T13:45:19.206Z,38.81
2018-08-10T13:47:48.285Z,35.72
2018-08-10T13:50:19.925Z,37.11
2018-08-10T13:52:48.911Z,35.14
2018-08-10T13:55:19.062Z,34.53
2018-08-10T13:57:49.529Z,35.40
2018-08-10T14:00:21.859Z,35.92
2018-08-10T14:02:58.511Z,35.88
2018-08-10T14:05:27.746Z,37.12
2018-08-10T14:07:56.771Z,36.29
2018-08-10T14:10:25.860Z,37.04
2018-08-10T14:12:54.832Z,36.98
2018-08-10T14:15:23.901Z,37.95
2018-08-10T14:17:54.204Z,37.84
2018-08-10T14:20:24.100Z,39.18
2018-08-10T14:22:53.221Z,40.42
2018-08-10T14:25:22.262Z,44.13
2018-08-10T14:27:51.249Z,44.38
2018-08-10T14:30:25.263Z,44.84
2018-08-10T14:32:54.262Z,45.00
2018-08-10T14:35:23.201Z,42.46
2018-08-10T14:37:52.272Z,42.15
2018-08-10T14:40:21.755Z,42.73
2018-08-10T14:42:51.994Z,42.78
2018-08-10T14:45:23.710Z,43.91
2018-08-10T14:47:54.451Z,42.69
2018-08-10T14:50:24.859Z,42.93
2018-08-10T14:52:53.828Z,44.14
2018-08-10T14:55:22.917Z,43.61
2018-08-10T14:57:51.909Z,44.66
2018-08-10T15:00:21.966Z,42.82
2018-08-10T15:02:51.547Z,43.48
2018-08-10T15:05:20.756Z,41.69
2018-08-10T15:07:50.592Z,41.44
2018-08-10T15:10:19.606Z,42.68
2018-08-10T15:12:48.942Z,41.83
2018-08-10T15:17:41.795Z,44.31
2018-08-10T15:20:18.044Z,44.49
2018-08-10T15:22:47.158Z,43.78
2018-08-10T15:25:18.508Z,41.27
2018-08-10T15:27:48.281Z,40.93
2018-08-10T15:30:20.016Z,40.06
2018-08-10T15:32:50.741Z,40.48
2018-08-10T15:35:19.942Z,39.68
2018-08-10T15:37:50.509Z,39.80
2018-08-10T15:40:20.397Z,40.22
2018-08-10T15:42:49.479Z,39.92
2018-08-10T15:45:20.314Z,40.84
2018-08-10T15:47:49.535Z,39.93
2018-08-10T15:50:18.661Z,40.71
2018-08-10T15:52:47.910Z,41.28
2018-08-10T15:55:17.317Z,43.05
2018-08-10T15:57:46.443Z,42.89
2018-08-10T16:00:22.702Z,43.64
2018-08-10T16:02:51.736Z,43.93
2018-08-10T16:05:20.809Z,45.17
2018-08-10T16:07:49.882Z,44.19
2018-08-10T16:10:18.960Z,44.69
2018-08-10T16:12:48.034Z,45.29
2018-08-10T16:15:18.566Z,45.19
2018-08-10T16:17:47.700Z,44.60
2018-08-10T16:20:21.805Z,46.08
2018-08-10T16:22:51.247Z,46.14
2018-08-10T16:25:20.407Z,46.17
2018-08-10T16:27:49.661Z,46.65
2018-08-10T16:30:18.821Z,46.11
2018-08-10T16:32:48.006Z,45.49
2018-08-10T16:35:17.674Z,45.45
2018-08-10T16:37:47.569Z,45.77
2018-08-10T16:40:18.841Z,45.32
2018-08-10T16:42:47.870Z,45.45
2018-08-10T16:45:17.793Z,45.97
2018-08-10T16:47:49.459Z,44.45
2018-08-10T16:50:19.565Z,45.85
2018-08-10T16:52:48.697Z,45.17
2018-08-10T16:55:19.248Z,45.01
2018-08-10T16:57:48.887Z,44.89
2018-08-10T17:00:21.647Z,46.02
2018-08-10T17:02:50.729Z,46.00
2018-08-10T17:05:21.526Z,46.41
2018-08-10T17:07:51.931Z,46.43
2018-08-10T17:10:21.043Z,45.93
2018-08-10T17:12:51.202Z,45.96
2018-08-10T17:15:21.315Z,46.16
2018-08-10T17:17:50.445Z,46.65
2018-08-10T17:20:21.147Z,46.14
2018-08-10T17:22:50.233Z,46.44
2018-08-10T17:28:12.099Z,46.23
2018-08-10T17:30:41.536Z,46.88
2018-08-10T17:33:10.775Z,45.89
2018-08-10T17:35:39.816Z,46.92
2018-08-10T17:38:08.974Z,45.80
2018-08-10T17:40:38.058Z,45.73
2018-08-10T17:43:07.185Z,46.30
2018-08-10T17:45:36.356Z,46.55
2018-08-10T17:48:06.126Z,47.20
2018-08-10T17:50:35.238Z,47.13
2018-08-10T17:53:04.680Z,48.45
2018-08-10T17:55:33.646Z,48.58
2018-08-10T17:58:03.195Z,48.01
2018-08-10T18:00:32.294Z,48.13
2018-08-10T18:03:01.804Z,48.46
2018-08-10T18:05:30.886Z,48.84
2018-08-10T18:08:00.044Z,49.46
2018-08-10T18:10:35.568Z,48.62
2018-08-10T18:13:04.718Z,47.01
2018-08-10T18:15:33.681Z,47.74
2018-08-10T18:18:03.318Z,48.43
2018-08-10T18:20:32.356Z,48.49
2018-08-10T18:23:03.238Z,49.29
2018-08-10T18:25:32.338Z,48.56
2018-08-10T18:28:01.806Z,48.97
2018-08-10T18:30:30.961Z,48.98
2018-08-10T18:33:00.161Z,49.07
2018-08-10T18:35:29.138Z,49.05
2018-08-10T18:37:58.280Z,48.19
2018-08-10T18:40:27.452Z,48.15
2018-08-10T18:42:56.519Z,48.37
2018-08-10T18:45:26.795Z,48.51
2018-08-10T18:47:55.874Z,48.36
2018-08-10T18:50:25.069Z,48.96
2018-08-10T18:52:54.172Z,48.78
2018-08-10T18:55:23.967Z,48.76
2018-08-10T18:57:53.515Z,49.39
2018-08-10T19:00:25.079Z,49.13
2018-08-10T19:02:54.356Z,50.31
2018-08-10T19:05:23.911Z,50.00
2018-08-10T19:07:52.941Z,50.63
2018-08-10T19:10:23.927Z,51.35
2018-08-10T19:12:52.917Z,51.87
2018-08-10T19:15:21.906Z,51.45
2018-08-10T19:17:50.909Z,51.11
2018-08-10T19:20:20.975Z,50.44
2018-08-10T19:22:49.966Z,50.91
2018-08-10T19:25:24.094Z,50.07
2018-08-10T19:27:53.092Z,50.54
2018-08-10T19:30:26.254Z,50.13
2018-08-10T19:32:55.232Z,50.28
2018-08-10T19:35:24.532Z,50.25
2018-08-10T19:37:53.598Z,51.50
2018-08-10T19:40:25.115Z,51.31
2018-08-10T19:42:54.108Z,52.27
2018-08-10T19:45:23.202Z,53.06
2018-08-10T19:48:12.910Z,53.39
2018-08-10T19:50:44.698Z,53.43
2018-08-10T19:53:13.993Z,53.43
2018-08-10T19:55:43.155Z,53.36
2018-08-10T19:58:16.235Z,53.71
2018-08-10T20:00:47.640Z,53.86
2018-08-10T20:03:17.203Z,52.86
2018-08-10T20:05:46.296Z,53.49
2018-08-10T20:08:15.859Z,53.04
2018-08-10T20:10:45.134Z,53.28
2018-08-10T20:13:14.380Z,54.00
2018-08-10T20:15:43.757Z,53.95
2018-08-10T20:18:13.024Z,54.37
2018-08-10T20:20:42.290Z,54.46
2018-08-10T20:23:12.784Z,55.12
2018-08-10T20:25:55.633Z,55.63
2018-08-10T20:28:35.807Z,55.52
2018-08-10T20:31:17.250Z,54.61
2018-08-10T20:33:59.175Z,54.55
2018-08-10T20:36:28.391Z,55.22
2018-08-10T20:39:27.536Z,56.38
2018-08-10T20:42:16.024Z,55.72
2018-08-10T20:44:45.870Z,55.65
2018-08-10T20:47:16.050Z,54.97
2018-08-10T20:50:08.091Z,55.05
2018-08-10T20:52:37.342Z,55.56
2018-08-10T20:55:23.454Z,55.95
2018-08-10T20:58:04.376Z,55.63
2018-08-10T21:00:51.142Z,56.01
2018-08-10T21:03:21.048Z,56.46
2018-08-10T21:05:50.146Z,57.19
2018-08-10T21:11:16.772Z,57.58
2018-08-10T21:13:46.054Z,58.20
2018-08-10T21:16:20.104Z,58.03
2018-08-10T21:18:49.720Z,58.16
2018-08-10T21:21:19.221Z,57.88
2018-08-10T21:23:48.527Z,58.00
2018-08-10T21:26:35.100Z,58.46
2018-08-10T21:29:05.890Z,58.83
2018-08-10T21:31:35.498Z,59.23
2018-08-10T21:34:05.346Z,59.68
2018-08-10T21:36:34.609Z,59.73
2018-08-10T21:39:11.267Z,59.20
2018-08-10T21:53:11.841Z,60.52
2018-08-10T21:56:01.161Z,61.98
2018-08-10T21:58:55.183Z,61.42
2018-08-10T22:01:24.386Z,61.31
2018-08-10T22:04:09.516Z,62.21
2018-08-10T22:06:39.528Z,61.74
2018-08-10T22:09:12.821Z,62.39
2018-08-10T22:11:42.059Z,62.57
2018-08-10T22:14:23.358Z,61.94
2018-08-10T22:16:58.219Z,62.41
2018-08-10T22:19:27.395Z,61.88
2018-08-10T22:21:56.634Z,62.69
2018-08-10T22:24:29.818Z,62.70
2018-08-10T22:27:05.747Z,62.67
2018-08-10T22:29:39.301Z,63.79
2018-08-10T22:32:15.713Z,64.38
2018-08-10T22:34:53.041Z,64.62
2018-08-10T22:37:22.422Z,64.59
2018-08-10T22:39:59.808Z,65.23
2018-08-10T22:46:11.319Z,64.83
2018-08-10T22:48:40.541Z,65.31
2018-08-10T22:51:15.523Z,64.43
2018-08-10T22:53:44.766Z,64.60
2018-08-10T22:56:13.884Z,63.56
2018-08-10T22:58:57.745Z,64.22
2018-08-10T23:01:46.517Z,64.08
2018-08-10T23:04:55.388Z,64.82
2018-08-10T23:07:51.352Z,65.74
2018-08-10T23:10:44.729Z,65.37
2018-08-10T23:13:25.951Z,65.69
2018-08-10T23:16:08.362Z,65.77
2018-08-10T23:19:09.615Z,66.08
2018-08-10T23:24:45.992Z,67.26
2018-08-10T23:27:18.931Z,68.45
2018-08-10T23:30:09.577Z,68.91
2018-08-10T23:33:03.492Z,68.84
2018-08-10T23:35:32.926Z,68.85
2018-08-10T23:38:02.937Z,68.77
2018-08-10T23:43:04.327Z,69.61
2018-08-10T23:45:54.190Z,69.51
2018-08-10T23:48:41.087Z,70.36
2018-08-10T23:51:10.479Z,72.53
2018-08-10T23:53:39.619Z,73.53
2018-08-10T23:56:08.995Z,74.96
2018-08-10T23:58:42.309Z,74.61
